createdAt,value
2018-08-08T00:01:24.907Z,25.20
2018-08-08T00:03:52.956Z,25.20
2018-08-08T00:06:21.023Z,25.20
2018-08-08T00:08:49.082Z,25.20
2018-08-08T00:11:17.132Z,25.00
2018-08-08T00:13:45.178Z,24.90
2018-08-08T00:16:13.215Z,24.70
2018-08-08T00:18:41.252Z,24.70
2018-08-08T00:21:09.294Z,24.70
2018-08-08T00:23:37.332Z,24.70
2018-08-08T00:26:05.464Z,24.70
2018-08-08T00:28:33.500Z,24.60
2018-08-08T00:31:01.568Z,24.60
2018-08-08T00:33:29.912Z,24.60
2018-08-08T00:35:57.957Z,24.50
2018-08-08T00:38:25.997Z,24.50
2018-08-08T00:40:54.052Z,24.50
2018-08-08T00:43:22.097Z,24.40
2018-08-08T00:45:50.144Z,24.40
2018-08-08T00:48:18.192Z,24.40
2018-08-08T00:50:46.254Z,24.30
2018-08-08T00:53:14.288Z,24.30
2018-08-08T00:55:42.333Z,24.20
2018-08-08T01:00:44.996Z,24.20
2018-08-08T01:03:13.029Z,24.10
2018-08-08T01:05:41.084Z,24.10
2018-08-08T01:08:09.183Z,24.10
2018-08-08T01:10:37.217Z,24.00
2018-08-08T01:13:05.272Z,24.00
2018-08-08T01:15:33.348Z,24.00
2018-08-08T01:18:01.408Z,24.00
2018-08-08T01:20:29.481Z,23.90
2018-08-08T01:22:57.548Z,24.00
2018-08-08T01:25:25.608Z,24.00
2018-08-08T01:27:53.673Z,24.00
2018-08-08T01:30:21.748Z,24.00
2018-08-08T01:32:49.803Z,24.00
2018-08-08T01:35:17.872Z,24.00
2018-08-08T01:37:45.932Z,24.00
2018-08-08T01:40:16.768Z,24.00
2018-08-08T01:42:44.967Z,23.90
2018-08-08T01:45:14.371Z,23.90
2018-08-08T01:47:42.456Z,23.80
2018-08-08T01:50:11.976Z,23.80
2018-08-08T01:52:40.352Z,23.70
2018-08-08T01:55:09.775Z,23.70
2018-08-08T01:57:37.965Z,23.70
2018-08-08T02:00:08.336Z,23.70
2018-08-08T02:02:36.796Z,23.70
2018-08-08T02:05:05.085Z,23.70
2018-08-08T02:07:33.147Z,23.70
2018-08-08T02:10:01.220Z,23.70
2018-08-08T02:12:29.288Z,23.70
2018-08-08T02:14:57.355Z,23.60
2018-08-08T02:17:25.422Z,23.50
2018-08-08T02:19:53.479Z,23.50
2018-08-08T02:22:21.550Z,23.50
2018-08-08T02:24:49.608Z,23.50
2018-08-08T02:27:17.667Z,23.50
2018-08-08T02:29:45.728Z,23.50
2018-08-08T02:32:13.796Z,23.50
2018-08-08T02:34:41.849Z,23.60
2018-08-08T02:37:09.984Z,23.50
2018-08-08T02:39:37.964Z,23.50
2018-08-08T02:42:06.045Z,23.50
2018-08-08T02:44:34.117Z,23.50
2018-08-08T02:47:02.184Z,23.60
2018-08-08T02:49:30.244Z,23.60
2018-08-08T02:51:58.315Z,23.60
2018-08-08T02:54:26.364Z,23.50
2018-08-08T02:56:54.436Z,23.50
2018-08-08T02:59:22.489Z,23.40
2018-08-08T03:01:50.548Z,23.40
2018-08-08T03:04:18.613Z,23.30
2018-08-08T03:06:46.689Z,23.20
2018-08-08T03:09:14.736Z,23.10
2018-08-08T03:14:20.944Z,23.00
2018-08-08T03:16:49.004Z,23.10
2018-08-08T03:19:17.048Z,23.10
2018-08-08T03:21:45.089Z,23.00
2018-08-08T03:24:13.123Z,23.00
2018-08-08T03:26:41.164Z,23.00
2018-08-08T03:29:09.204Z,23.00
2018-08-08T03:31:37.292Z,23.00
2018-08-08T03:34:05.308Z,23.00
2018-08-08T03:36:33.378Z,23.00
2018-08-08T03:39:01.405Z,23.00
2018-08-08T03:41:29.444Z,23.00
2018-08-08T03:43:57.509Z,23.00
2018-08-08T03:46:25.568Z,22.90
2018-08-08T03:48:53.608Z,22.90
2018-08-08T03:51:21.648Z,22.90
2018-08-08T03:53:49.680Z,22.90
2018-08-08T03:56:17.723Z,22.90
2018-08-08T03:58:45.752Z,22.90
2018-08-08T04:01:13.796Z,22.90
2018-08-08T04:03:41.837Z,23.00
2018-08-08T04:06:09.884Z,23.10
2018-08-08T04:08:37.933Z,23.10
2018-08-08T04:11:05.984Z,23.10
2018-08-08T04:13:34.032Z,23.10
2018-08-08T04:16:02.068Z,23.00
2018-08-08T04:18:30.392Z,23.00
2018-08-08T04:20:58.436Z,23.10
2018-08-08T04:23:26.504Z,23.10
2018-08-08T04:25:54.568Z,23.10
2018-08-08T04:28:22.639Z,23.20
2018-08-08T04:30:50.700Z,23.10
2018-08-08T04:33:18.797Z,23.20
2018-08-08T04:35:46.852Z,23.20
2018-08-08T04:38:14.917Z,23.30
2018-08-08T04:40:42.976Z,23.30
2018-08-08T04:43:11.040Z,23.30
2018-08-08T04:45:39.104Z,23.40
2018-08-08T04:48:07.172Z,23.40
2018-08-08T04:50:35.232Z,23.50
2018-08-08T04:53:03.304Z,23.50
2018-08-08T04:55:31.408Z,23.50
2018-08-08T04:57:59.450Z,23.60
2018-08-08T05:00:27.489Z,23.70
2018-08-08T05:02:55.557Z,23.60
2018-08-08T05:05:23.612Z,23.50
2018-08-08T05:07:51.739Z,23.50
2018-08-08T05:10:19.772Z,23.50
2018-08-08T05:12:47.832Z,23.40
2018-08-08T05:15:18.056Z,23.40
2018-08-08T05:17:47.277Z,23.50
2018-08-08T05:20:15.635Z,23.60
2018-08-08T05:22:44.878Z,23.70
2018-08-08T05:25:13.260Z,23.80
2018-08-08T05:27:41.360Z,24.00
2018-08-08T05:30:14.769Z,24.00
2018-08-08T05:32:42.892Z,24.20
2018-08-08T05:35:11.528Z,24.30
2018-08-08T05:37:39.648Z,24.40
2018-08-08T05:40:13.984Z,24.50
2018-08-08T05:42:42.048Z,24.60
2018-08-08T05:45:12.171Z,24.70
2018-08-08T05:47:40.679Z,24.80
2018-08-08T05:50:10.396Z,24.90
2018-08-08T05:52:38.980Z,25.00
2018-08-08T05:55:08.195Z,25.10
2018-08-08T05:57:36.700Z,25.20
2018-08-08T06:00:09.844Z,25.30
2018-08-08T06:02:37.908Z,25.40
2018-08-08T06:05:06.625Z,25.50
2018-08-08T06:07:34.772Z,25.60
2018-08-08T06:10:02.825Z,25.80
2018-08-08T06:12:30.875Z,25.90
2018-08-08T06:14:59.024Z,25.90
2018-08-08T06:17:27.084Z,25.90
2018-08-08T06:19:55.423Z,25.90
2018-08-08T06:22:23.440Z,25.90
2018-08-08T06:24:51.481Z,26.00
2018-08-08T06:27:19.531Z,26.00
2018-08-08T06:29:47.608Z,26.00
2018-08-08T06:32:15.725Z,26.20
2018-08-08T06:34:43.752Z,26.40
2018-08-08T06:37:11.806Z,26.70
2018-08-08T06:39:39.837Z,26.90
2018-08-08T06:42:07.888Z,27.10
2018-08-08T06:44:35.959Z,27.40
2018-08-08T06:47:04.056Z,27.50
2018-08-08T06:49:32.104Z,27.90
2018-08-08T06:52:00.148Z,28.60
2018-08-08T06:54:28.196Z,29.70
2018-08-08T06:56:56.249Z,30.80
2018-08-08T06:59:24.295Z,32.10
2018-08-08T07:01:52.332Z,33.20
2018-08-08T07:04:20.412Z,33.80
2018-08-08T07:06:48.448Z,34.40
2018-08-08T07:09:16.538Z,34.70
2018-08-08T07:11:44.606Z,35.00
2018-08-08T07:14:12.792Z,35.60
2018-08-08T07:16:40.812Z,36.00
2018-08-08T07:19:08.899Z,36.60
2018-08-08T07:21:36.952Z,37.40
2018-08-08T07:24:05.023Z,37.60
2018-08-08T07:26:33.077Z,37.80
2018-08-08T07:29:01.140Z,38.20
2018-08-08T07:31:29.204Z,38.60
2018-08-08T07:33:57.308Z,39.30
2018-08-08T07:36:25.372Z,39.60
2018-08-08T07:38:53.440Z,40.30
2018-08-08T07:41:21.500Z,40.70
2018-08-08T07:43:49.647Z,40.90
2018-08-08T07:46:17.794Z,41.10
2018-08-08T07:48:45.816Z,41.20
2018-08-08T07:51:13.900Z,41.20
2018-08-08T07:53:42.000Z,41.20
2018-08-08T07:56:10.089Z,41.30
2018-08-08T07:58:38.184Z,40.40
2018-08-08T08:01:06.309Z,39.30
2018-08-08T08:03:34.440Z,37.80
2018-08-08T08:06:02.475Z,36.60
2018-08-08T08:08:30.569Z,35.40
2018-08-08T08:10:58.640Z,34.30
2018-08-08T08:13:26.688Z,33.50
2018-08-08T08:15:54.739Z,33.00
2018-08-08T08:18:22.776Z,32.20
2018-08-08T08:20:50.840Z,31.50
2018-08-08T08:23:19.009Z,32.30
2018-08-08T08:25:46.919Z,33.90
2018-08-08T08:28:14.964Z,34.60
2018-08-08T08:30:42.996Z,35.50
2018-08-08T08:33:11.041Z,36.60
2018-08-08T08:35:39.083Z,36.70
2018-08-08T08:38:07.125Z,36.70
2018-08-08T08:40:35.193Z,37.10
2018-08-08T08:43:03.235Z,37.00
2018-08-08T08:45:31.315Z,37.00
2018-08-08T08:47:59.360Z,37.00
2018-08-08T08:50:27.422Z,36.00
2018-08-08T08:52:55.432Z,35.90
2018-08-08T08:55:23.467Z,36.00
2018-08-08T08:57:51.506Z,35.20
2018-08-08T09:00:19.552Z,35.20
2018-08-08T09:02:47.588Z,35.70
2018-08-08T09:05:15.632Z,35.80
2018-08-08T09:07:43.702Z,35.90
2018-08-08T09:10:12.134Z,36.20
2018-08-08T09:12:40.824Z,36.10
2018-08-08T09:15:10.760Z,36.60
2018-08-08T09:17:38.793Z,36.80
2018-08-08T09:20:06.900Z,37.60
2018-08-08T09:22:35.516Z,37.70
2018-08-08T09:25:03.652Z,36.90
2018-08-08T09:27:31.689Z,36.90
2018-08-08T09:30:05.280Z,37.30
2018-08-08T09:32:33.316Z,37.50
2018-08-08T09:35:01.357Z,38.00
2018-08-08T09:37:29.491Z,37.90
2018-08-08T09:39:57.536Z,37.90
2018-08-08T09:42:25.582Z,37.80
2018-08-08T09:44:53.647Z,38.20
2018-08-08T09:47:21.688Z,37.50
2018-08-08T09:49:49.761Z,37.30
2018-08-08T09:52:17.788Z,37.20
2018-08-08T09:54:45.868Z,36.90
2018-08-08T09:57:13.895Z,37.30
2018-08-08T09:59:41.973Z,37.40
2018-08-08T10:02:15.387Z,37.10
2018-08-08T10:04:43.436Z,36.40
2018-08-08T10:07:11.517Z,36.30
2018-08-08T10:09:39.669Z,36.40
2018-08-08T10:12:07.808Z,36.10
2018-08-08T10:14:35.856Z,35.70
2018-08-08T10:17:03.916Z,35.30
2018-08-08T10:19:31.984Z,34.50
2018-08-08T10:22:00.037Z,34.30
2018-08-08T10:24:28.260Z,33.90
2018-08-08T10:26:56.388Z,34.00
2018-08-08T10:29:24.412Z,34.30
2018-08-08T10:31:52.505Z,34.40
2018-08-08T10:34:20.568Z,34.60
2018-08-08T10:36:48.636Z,34.90
2018-08-08T10:39:16.705Z,35.30
2018-08-08T10:41:44.820Z,35.60
2018-08-08T10:44:12.893Z,35.30
2018-08-08T10:46:40.944Z,35.00
2018-08-08T10:49:08.999Z,35.20
2018-08-08T10:51:37.072Z,35.00
2018-08-08T10:54:05.141Z,34.80
2018-08-08T10:56:33.204Z,34.90
2018-08-08T10:59:02.604Z,34.90
2018-08-08T11:01:31.476Z,35.00
2018-08-08T11:03:59.524Z,35.20
2018-08-08T11:06:27.598Z,35.10
2018-08-08T11:08:55.680Z,34.90
2018-08-08T11:11:23.836Z,34.90
2018-08-08T11:13:51.884Z,34.80
2018-08-08T11:16:20.192Z,35.00
2018-08-08T11:18:48.266Z,34.90
2018-08-08T11:21:16.372Z,34.90
2018-08-08T11:23:44.473Z,34.80
2018-08-08T11:26:12.532Z,35.20
2018-08-08T11:28:40.603Z,35.30
2018-08-08T11:31:08.717Z,35.30
2018-08-08T11:33:36.779Z,35.10
2018-08-08T11:36:04.840Z,35.00
2018-08-08T11:38:32.908Z,35.20
2018-08-08T11:41:00.968Z,35.30
2018-08-08T11:43:29.048Z,35.60
2018-08-08T11:45:57.117Z,35.60
2018-08-08T11:48:25.207Z,35.60
2018-08-08T11:50:53.267Z,35.70
2018-08-08T11:53:21.344Z,35.70
2018-08-08T11:55:49.419Z,35.70
2018-08-08T11:58:17.482Z,36.00
2018-08-08T12:00:45.544Z,36.20
2018-08-08T12:03:13.596Z,36.20
2018-08-08T12:05:41.665Z,35.90
2018-08-08T12:08:09.704Z,35.50
2018-08-08T12:10:37.744Z,35.40
2018-08-08T12:13:05.785Z,35.30
2018-08-08T12:15:33.836Z,35.20
2018-08-08T12:18:01.876Z,35.20
2018-08-08T12:20:29.926Z,35.40
2018-08-08T12:22:57.955Z,35.50
2018-08-08T12:25:25.996Z,35.30
2018-08-08T12:27:54.032Z,35.30
2018-08-08T12:30:22.092Z,35.30
2018-08-08T12:32:50.133Z,35.40
2018-08-08T12:35:18.234Z,35.60
2018-08-08T12:37:46.245Z,35.30
2018-08-08T12:40:14.337Z,35.20
2018-08-08T12:42:42.362Z,34.70
2018-08-08T12:45:10.973Z,34.40
2018-08-08T12:47:39.024Z,34.10
2018-08-08T12:50:08.092Z,34.30
2018-08-08T12:52:36.810Z,34.40
2018-08-08T12:55:04.984Z,34.50
2018-08-08T12:57:33.314Z,34.60
2018-08-08T13:00:01.374Z,35.00
2018-08-08T13:02:29.423Z,35.10
2018-08-08T13:04:57.484Z,35.20
2018-08-08T13:07:25.544Z,35.60
2018-08-08T13:09:53.607Z,36.00
2018-08-08T13:12:21.672Z,36.00
2018-08-08T13:14:49.742Z,36.20
2018-08-08T13:17:17.820Z,36.60
2018-08-08T13:19:45.896Z,36.90
2018-08-08T13:22:13.971Z,36.70
2018-08-08T13:24:42.062Z,36.50
2018-08-08T13:27:10.124Z,36.10
2018-08-08T13:29:38.198Z,36.30
2018-08-08T13:32:06.604Z,36.20
2018-08-08T13:34:34.667Z,36.10
2018-08-08T13:37:02.744Z,36.20
2018-08-08T13:39:30.818Z,36.10
2018-08-08T13:41:58.888Z,36.10
2018-08-08T13:44:26.975Z,36.00
2018-08-08T13:46:55.053Z,36.00
2018-08-08T13:49:23.120Z,35.90
2018-08-08T13:51:51.201Z,35.60
2018-08-08T13:54:19.264Z,35.60
2018-08-08T13:56:47.339Z,35.70
2018-08-08T13:59:15.460Z,35.60
2018-08-08T14:01:43.640Z,35.50
2018-08-08T14:04:11.713Z,35.30
2018-08-08T14:06:39.799Z,35.10
2018-08-08T14:09:08.736Z,35.10
2018-08-08T14:11:36.827Z,35.20
2018-08-08T14:14:04.884Z,35.30
2018-08-08T14:16:32.938Z,35.30
2018-08-08T14:19:01.005Z,35.20
2018-08-08T14:21:29.060Z,34.80
2018-08-08T14:23:57.288Z,34.70
2018-08-08T14:26:25.416Z,34.80
2018-08-08T14:28:53.464Z,34.70
2018-08-08T14:31:21.553Z,34.70
2018-08-08T14:33:50.022Z,34.90
2018-08-08T14:36:18.456Z,34.90
2018-08-08T14:38:46.540Z,35.00
2018-08-08T14:41:14.800Z,34.90
2018-08-08T14:43:42.776Z,34.80
2018-08-08T14:46:11.003Z,34.70
2018-08-08T14:48:39.033Z,34.30
2018-08-08T14:51:07.128Z,34.20
2018-08-08T14:53:35.192Z,34.20
2018-08-08T14:56:03.244Z,34.10
2018-08-08T14:58:31.300Z,33.90
2018-08-08T15:00:59.492Z,33.90
2018-08-08T15:03:27.587Z,33.90
2018-08-08T15:05:55.666Z,33.90
2018-08-08T15:08:23.736Z,34.00
2018-08-08T15:10:51.872Z,33.90
2018-08-08T15:13:19.935Z,33.90
2018-08-08T15:15:48.047Z,33.90
2018-08-08T15:18:16.107Z,33.50
2018-08-08T15:20:44.181Z,33.20
2018-08-08T15:23:13.566Z,33.00
2018-08-08T15:25:42.046Z,33.00
2018-08-08T15:28:10.146Z,33.10
2018-08-08T15:30:38.208Z,33.30
2018-08-08T15:33:06.445Z,33.50
2018-08-08T15:35:34.534Z,33.50
2018-08-08T15:38:03.195Z,33.60
2018-08-08T15:40:31.964Z,33.60
2018-08-08T15:43:00.054Z,33.70
2018-08-08T15:45:28.120Z,33.70
2018-08-08T15:47:56.217Z,33.80
2018-08-08T15:50:24.340Z,33.80
2018-08-08T15:52:52.408Z,33.80
2018-08-08T15:55:20.906Z,33.90
2018-08-08T15:57:48.968Z,33.90
2018-08-08T16:00:17.048Z,33.70
2018-08-08T16:02:45.127Z,33.50
2018-08-08T16:05:13.193Z,33.40
2018-08-08T16:07:41.445Z,33.50
2018-08-08T16:10:10.852Z,33.40
2018-08-08T16:12:38.904Z,33.20
2018-08-08T16:15:07.539Z,33.20
2018-08-08T16:17:35.752Z,33.20
2018-08-08T16:20:04.259Z,33.00
2018-08-08T16:22:32.304Z,32.90
2018-08-08T16:25:00.784Z,32.90
2018-08-08T16:27:28.832Z,32.70
2018-08-08T16:29:56.900Z,32.60
2018-08-08T16:32:24.937Z,32.60
2018-08-08T16:34:53.592Z,32.50
2018-08-08T16:37:21.661Z,32.40
2018-08-08T16:39:49.857Z,32.40
2018-08-08T16:42:17.913Z,32.50
2018-08-08T16:44:45.971Z,32.50
2018-08-08T16:47:14.121Z,32.40
2018-08-08T16:49:42.160Z,32.40
2018-08-08T16:52:10.240Z,32.40
2018-08-08T16:54:38.304Z,32.40
2018-08-08T16:57:06.624Z,32.40
2018-08-08T16:59:34.636Z,32.40
2018-08-08T17:02:02.687Z,32.50
2018-08-08T17:04:30.735Z,32.40
2018-08-08T17:06:58.781Z,32.30
2018-08-08T17:09:26.881Z,32.20
2018-08-08T17:11:54.946Z,32.20
2018-08-08T17:14:23.052Z,32.20
2018-08-08T17:16:51.197Z,32.10
2018-08-08T17:19:19.272Z,32.00
2018-08-08T17:21:47.341Z,32.00
2018-08-08T17:24:15.409Z,31.80
2018-08-08T17:26:43.500Z,31.70
2018-08-08T17:29:11.596Z,31.60
2018-08-08T17:31:39.668Z,31.60
2018-08-08T17:34:07.767Z,31.60
2018-08-08T17:36:35.872Z,31.50
2018-08-08T17:39:06.041Z,31.30
2018-08-08T17:41:34.161Z,31.30
2018-08-08T17:44:02.437Z,31.20
2018-08-08T17:46:30.328Z,31.10
2018-08-08T17:48:58.401Z,31.10
2018-08-08T17:51:26.465Z,31.00
2018-08-08T17:53:54.544Z,31.00
2018-08-08T17:56:22.616Z,30.90
2018-08-08T17:58:50.700Z,30.70
2018-08-08T18:01:18.792Z,30.60
2018-08-08T18:03:46.989Z,30.40
2018-08-08T18:06:15.087Z,30.40
2018-08-08T18:08:43.165Z,30.30
2018-08-08T18:11:11.232Z,30.20
2018-08-08T18:13:39.325Z,30.10
2018-08-08T18:16:07.643Z,30.10
2018-08-08T18:18:35.720Z,30.00
2018-08-08T18:21:03.804Z,29.80
2018-08-08T18:23:31.896Z,29.80
2018-08-08T18:26:00.023Z,29.70
2018-08-08T18:28:28.100Z,29.60
2018-08-08T18:30:56.177Z,29.50
2018-08-08T18:33:24.267Z,29.40
2018-08-08T18:35:52.337Z,29.30
2018-08-08T18:38:20.434Z,29.20
2018-08-08T18:40:48.520Z,29.10
2018-08-08T18:43:16.597Z,29.00
2018-08-08T18:45:44.669Z,28.90
2018-08-08T18:48:12.739Z,28.80
2018-08-08T18:50:40.827Z,28.80
2018-08-08T18:53:08.908Z,28.70
2018-08-08T18:55:36.984Z,28.60
2018-08-08T18:58:05.109Z,28.50
2018-08-08T19:00:33.188Z,28.40
2018-08-08T19:03:01.268Z,28.30
2018-08-08T19:05:29.336Z,28.20
2018-08-08T19:07:57.508Z,28.10
2018-08-08T19:10:25.589Z,28.00
2018-08-08T19:12:53.691Z,28.00
2018-08-08T19:15:21.779Z,27.80
2018-08-08T19:17:49.848Z,27.80
2018-08-08T19:20:17.940Z,27.70
2018-08-08T19:22:46.037Z,27.70
2018-08-08T19:25:14.105Z,27.60
2018-08-08T19:27:42.176Z,27.50
2018-08-08T19:30:10.304Z,27.50
2018-08-08T19:32:38.375Z,27.40
2018-08-08T19:35:06.478Z,27.30
2018-08-08T19:37:34.552Z,27.20
2018-08-08T19:40:02.637Z,27.10
2018-08-08T19:42:30.698Z,27.00
2018-08-08T19:44:58.776Z,26.90
2018-08-08T19:47:26.859Z,26.90
2018-08-08T19:49:55.695Z,26.80
2018-08-08T19:52:23.757Z,26.70
2018-08-08T19:54:51.837Z,26.60
2018-08-08T19:57:19.916Z,26.60
2018-08-08T19:59:47.997Z,26.50
2018-08-08T20:02:16.158Z,26.40
2018-08-08T20:04:44.156Z,26.40
2018-08-08T20:07:12.233Z,26.30
2018-08-08T20:09:40.304Z,26.20
2018-08-08T20:12:08.352Z,26.10
2018-08-08T20:14:36.428Z,26.00
2018-08-08T20:17:04.472Z,25.90
2018-08-08T20:19:32.525Z,25.80
2018-08-08T20:22:00.568Z,25.70
2018-08-08T20:24:28.637Z,25.70
2018-08-08T20:26:56.680Z,25.60
2018-08-08T20:29:24.740Z,25.50
2018-08-08T20:31:52.800Z,25.40
2018-08-08T20:34:20.837Z,25.30
2018-08-08T20:36:48.942Z,25.30
2018-08-08T20:39:16.988Z,25.20
2018-08-08T20:41:45.075Z,25.20
2018-08-08T20:44:13.132Z,25.10
2018-08-08T20:46:41.189Z,24.90
2018-08-08T20:49:09.241Z,24.80
2018-08-08T20:51:37.303Z,24.70
2018-08-08T20:54:05.359Z,24.70
2018-08-08T20:56:33.402Z,24.60
2018-08-08T20:59:01.470Z,24.60
2018-08-08T21:01:29.508Z,24.50
2018-08-08T21:03:57.564Z,24.50
2018-08-08T21:06:25.740Z,24.50
2018-08-08T21:08:53.861Z,24.50
2018-08-08T21:11:21.932Z,24.50
2018-08-08T21:13:50.209Z,24.50
2018-08-08T21:16:18.312Z,24.40
2018-08-08T21:18:46.396Z,24.40
2018-08-08T21:21:14.472Z,24.40
2018-08-08T21:23:42.544Z,24.40
2018-08-08T21:26:10.620Z,24.40
2018-08-08T21:28:38.695Z,24.40
2018-08-08T21:31:06.776Z,24.30
2018-08-08T21:33:34.871Z,24.30
2018-08-08T21:36:02.960Z,24.20
2018-08-08T21:38:31.020Z,24.20
2018-08-08T21:40:59.109Z,24.20
2018-08-08T21:43:27.368Z,24.10
2018-08-08T21:45:55.468Z,24.10
2018-08-08T21:48:23.550Z,24.00
2018-08-08T21:50:51.628Z,24.00
2018-08-08T21:53:24.192Z,24.00
2018-08-08T21:56:03.952Z,23.90
2018-08-08T21:58:43.520Z,23.80
2018-08-08T22:01:23.029Z,23.70
2018-08-08T22:04:02.572Z,23.60
2018-08-08T22:06:42.192Z,23.60
2018-08-08T22:09:21.719Z,23.60
2018-08-08T22:12:01.406Z,23.50
2018-08-08T22:14:41.063Z,23.50
2018-08-08T22:17:20.744Z,23.50
2018-08-08T22:19:48.831Z,23.40
2018-08-08T22:22:16.900Z,23.40
2018-08-08T22:24:44.963Z,23.30
2018-08-08T22:27:13.032Z,23.30
2018-08-08T22:29:41.104Z,23.30
2018-08-08T22:32:09.244Z,23.20
2018-08-08T22:34:37.276Z,23.20
2018-08-08T22:37:05.614Z,23.20
2018-08-08T22:39:33.676Z,23.10
2018-08-08T22:42:01.750Z,23.10
2018-08-08T22:44:29.828Z,23.10
2018-08-08T22:46:57.899Z,23.10
2018-08-08T22:49:25.967Z,23.00
2018-08-08T22:51:54.032Z,22.90
2018-08-08T22:54:22.101Z,22.90
2018-08-08T22:56:50.166Z,22.80
2018-08-08T22:59:18.271Z,22.80
2018-08-08T23:01:46.352Z,22.80
2018-08-08T23:04:14.428Z,22.70
2018-08-08T23:06:42.504Z,22.70
2018-08-08T23:09:11.552Z,22.60
2018-08-08T23:11:39.596Z,22.60
2018-08-08T23:14:07.868Z,22.60
2018-08-08T23:16:35.945Z,22.60
2018-08-08T23:19:04.028Z,22.60
2018-08-08T23:21:32.068Z,22.50
2018-08-08T23:24:00.128Z,22.40
2018-08-08T23:26:28.177Z,22.40
2018-08-08T23:28:56.248Z,22.40
2018-08-08T23:31:24.296Z,22.40
2018-08-08T23:33:52.754Z,22.40
2018-08-08T23:36:20.807Z,22.30
2018-08-08T23:38:48.861Z,22.30
2018-08-08T23:41:16.916Z,22.30
2018-08-08T23:43:44.973Z,22.20
2018-08-08T23:46:13.018Z,22.20
2018-08-08T23:48:41.071Z,22.20
2018-08-08T23:51:09.128Z,22.10
2018-08-08T23:53:37.196Z,22.10
2018-08-08T23:56:05.237Z,22.10
2018-08-08T23:58:33.293Z,22.00
